EGHI/SOU METAR and TAF weather

Enter ICAO airport designator
Station Type Date Time Source
EGHI METAR 2020/09/21 18:20 UTC NOAA

EGHI 211820Z 19003KT CAVOK 19/13 Q1016


Station Type Date Time Source
EGHI Decoded METAR 2020/09/21 18:20 UTC NOAA

Southampton / Weather Centre, United Kingdom (EGHI) 50-54N 001-24W 0M
Sep 21, 2020 - 02:20 PM EDT / 2020.09.21 1820 UTC
Wind: from the S (190 degrees) at 3 MPH (3 KT):0
Visibility: greater than 7 mile(s):0
Temperature: 66 F (19 C)
Dew Point: 55 F (13 C)
Relative Humidity: 68%
Pressure (altimeter): 30.00 in. Hg (1016 hPa)
ob: EGHI 211820Z 19003KT CAVOK 19/13 Q1016
cycle: 18

Station Type Date Time Source
EGHI TAF 2020/02/21 21:54 UTC NOAA

TAF EGHI 210345Z 2021/2123 CNL

Example: see airport list